createdAt,value
2018-02-18T00:00:37.805Z,25.08
2018-02-18T00:03:05.338Z,23.02
2018-02-18T00:05:32.874Z,21.23
2018-02-18T00:08:01.156Z,20.50
2018-02-18T00:10:29.458Z,26.58
2018-02-18T00:12:56.987Z,21.27
2018-02-18T00:15:25.405Z,20.23
2018-02-18T00:17:52.934Z,31.35
2018-02-18T00:20:21.307Z,29.60
2018-02-18T00:22:49.600Z,26.60
2018-02-18T00:25:17.156Z,34.72
2018-02-18T00:27:44.733Z,27.52
2018-02-18T00:30:12.295Z,33.08
2018-02-18T00:32:39.824Z,27.77
2018-02-18T00:35:08.202Z,27.75
2018-02-18T00:37:36.522Z,28.83
2018-02-18T00:40:04.081Z,34.03
2018-02-18T00:42:31.679Z,25.88
2018-02-18T00:44:59.291Z,31.23
2018-02-18T00:47:26.806Z,29.20
2018-02-18T00:49:54.377Z,26.00
2018-02-18T00:52:22.692Z,22.17
2018-02-18T00:54:50.235Z,26.00
2018-02-18T00:57:17.774Z,21.37
2018-02-18T00:59:46.088Z,25.92
2018-02-18T01:02:13.620Z,21.42
2018-02-18T01:04:41.302Z,31.08
2018-02-18T01:07:08.858Z,28.40
2018-02-18T01:09:36.507Z,28.98
2018-02-18T01:12:04.069Z,31.65
2018-02-18T01:14:31.606Z,26.92
2018-02-18T01:16:59.916Z,29.70
2018-02-18T01:19:27.464Z,27.35
2018-02-18T01:21:55.033Z,22.13
2018-02-18T01:24:22.551Z,30.45
2018-02-18T01:26:51.793Z,29.37
2018-02-18T01:29:19.454Z,22.17
2018-02-18T01:31:46.975Z,25.05
2018-02-18T01:34:14.575Z,23.27
2018-02-18T01:36:42.159Z,29.15
2018-02-18T01:39:09.707Z,29.02
2018-02-18T01:41:37.228Z,30.73
2018-02-18T01:44:05.570Z,24.85
2018-02-18T01:46:33.180Z,26.92
2018-02-18T01:49:00.746Z,27.35
2018-02-18T01:51:28.257Z,23.95
2018-02-18T01:53:55.845Z,30.50
2018-02-18T01:56:24.172Z,26.15
2018-02-18T01:58:51.735Z,33.55
2018-02-18T02:01:20.280Z,28.05
2018-02-18T02:03:47.847Z,29.10
2018-02-18T02:06:15.373Z,29.27
2018-02-18T02:08:43.673Z,26.67
2018-02-18T02:11:11.234Z,24.35
2018-02-18T02:13:38.779Z,32.13
2018-02-18T02:16:07.038Z,22.25
2018-02-18T02:18:34.571Z,28.77
2018-02-18T02:21:02.096Z,26.70
2018-02-18T02:23:29.634Z,25.95
2018-02-18T02:25:57.151Z,28.95
2018-02-18T02:28:24.699Z,29.60
2018-02-18T02:30:52.337Z,30.40
2018-02-18T02:33:19.871Z,30.67
2018-02-18T02:35:47.384Z,23.20
2018-02-18T02:38:14.932Z,32.17
2018-02-18T02:40:42.468Z,30.52
2018-02-18T02:43:10.126Z,29.77
2018-02-18T02:45:37.639Z,29.63
2018-02-18T02:48:05.196Z,29.95
2018-02-18T02:50:32.804Z,33.00
2018-02-18T02:53:00.347Z,34.00
2018-02-18T02:55:27.928Z,29.80
2018-02-18T02:57:55.465Z,30.27
2018-02-18T03:00:23.760Z,30.92
2018-02-18T03:02:51.410Z,28.67
2018-02-18T03:05:18.940Z,28.02
2018-02-18T03:07:47.247Z,36.38
2018-02-18T03:10:14.775Z,29.52
2018-02-18T03:12:42.366Z,31.15
2018-02-18T03:15:09.884Z,26.08
2018-02-18T03:17:37.456Z,27.10
2018-02-18T03:20:04.976Z,36.65
2018-02-18T03:22:32.519Z,30.73
2018-02-18T03:25:00.035Z,33.65
2018-02-18T03:27:28.346Z,29.75
2018-02-18T03:29:55.868Z,32.30
2018-02-18T03:32:23.412Z,29.80
2018-02-18T03:34:50.947Z,30.77
2018-02-18T03:37:18.500Z,32.85
2018-02-18T03:39:46.046Z,28.40
2018-02-18T03:42:13.540Z,32.70
2018-02-18T03:44:41.076Z,30.83
2018-02-18T03:47:08.619Z,31.55
2018-02-18T03:49:36.162Z,36.10
2018-02-18T03:52:03.741Z,31.08
2018-02-18T03:54:31.266Z,29.87
2018-02-18T03:56:59.669Z,34.33
2018-02-18T03:59:27.195Z,30.60
2018-02-18T04:01:54.795Z,30.27
2018-02-18T04:04:22.353Z,39.15
2018-02-18T04:06:49.906Z,33.45
2018-02-18T04:09:17.473Z,32.42
2018-02-18T04:11:45.954Z,30.80
2018-02-18T04:14:13.465Z,35.00
2018-02-18T04:16:40.996Z,39.42
2018-02-18T04:19:08.502Z,37.38
2018-02-18T04:21:36.841Z,47.22
2018-02-18T04:24:04.371Z,37.70
2018-02-18T04:26:32.021Z,34.53
2018-02-18T04:28:59.568Z,38.35
2018-02-18T04:31:27.098Z,42.80
2018-02-18T04:33:54.616Z,35.05
2018-02-18T04:36:22.252Z,32.40
2018-02-18T04:38:50.667Z,40.70
2018-02-18T04:41:18.200Z,47.83
2018-02-18T04:43:45.759Z,43.22
2018-02-18T04:46:13.350Z,33.55
2018-02-18T04:48:40.860Z,37.25
2018-02-18T04:51:09.140Z,41.05
2018-02-18T04:53:36.715Z,34.15
2018-02-18T04:56:04.227Z,35.97
2018-02-18T04:58:31.826Z,94.07
2018-02-18T05:01:00.562Z,41.42
2018-02-18T05:03:28.076Z,40.35
2018-02-18T05:05:55.746Z,42.65
2018-02-18T05:08:24.051Z,41.60
2018-02-18T05:10:51.597Z,33.90
2018-02-18T05:13:19.150Z,35.38
2018-02-18T05:15:46.676Z,37.28
2018-02-18T05:18:15.080Z,40.55
2018-02-18T05:20:42.665Z,43.47
2018-02-18T05:23:10.251Z,38.25
2018-02-18T05:25:37.856Z,41.08
2018-02-18T05:28:05.402Z,41.20
2018-02-18T05:30:32.936Z,39.47
2018-02-18T05:33:00.529Z,42.38
2018-02-18T05:35:28.049Z,43.08
2018-02-18T05:37:55.606Z,47.70
2018-02-18T05:40:23.170Z,42.72
2018-02-18T05:42:50.713Z,42.28
2018-02-18T05:45:18.225Z,44.45
2018-02-18T05:47:46.637Z,43.80
2018-02-18T05:50:14.154Z,39.42
2018-02-18T05:52:41.700Z,37.25
2018-02-18T05:55:09.974Z,41.42
2018-02-18T05:57:38.376Z,48.53
2018-02-18T06:00:05.907Z,46.58
2018-02-18T06:02:34.325Z,46.85
2018-02-18T06:05:01.885Z,48.92
2018-02-18T06:07:29.424Z,38.83
2018-02-18T06:09:56.954Z,44.75
2018-02-18T06:12:24.508Z,43.25
2018-02-18T06:14:52.013Z,49.42
2018-02-18T06:17:19.561Z,51.70
2018-02-18T06:19:47.095Z,49.30
2018-02-18T06:22:15.511Z,54.90
2018-02-18T06:24:43.039Z,48.85
2018-02-18T06:27:11.356Z,44.10
2018-02-18T06:29:38.869Z,45.72
2018-02-18T06:32:06.418Z,44.67
2018-02-18T06:34:33.956Z,49.88
2018-02-18T06:37:01.498Z,44.90
2018-02-18T06:39:29.033Z,49.20
2018-02-18T06:41:56.573Z,51.78
2018-02-18T06:44:24.878Z,48.60
2018-02-18T06:46:52.400Z,51.50
2018-02-18T06:49:20.703Z,51.97
2018-02-18T06:51:48.268Z,38.17
2018-02-18T06:54:15.833Z,47.70
2018-02-18T06:56:43.371Z,43.25
2018-02-18T06:59:11.670Z,49.30
2018-02-18T07:01:39.215Z,47.53
2018-02-18T07:04:06.972Z,40.25
2018-02-18T07:06:34.545Z,46.95
2018-02-18T07:09:02.079Z,50.22
2018-02-18T07:11:30.351Z,38.75
2018-02-18T07:13:58.669Z,47.30
2018-02-18T07:16:26.216Z,44.90
2018-02-18T07:18:53.804Z,47.47
2018-02-18T07:21:21.447Z,53.40
2018-02-18T07:23:48.986Z,39.95
2018-02-18T07:26:16.559Z,45.40
2018-02-18T07:28:44.118Z,46.60
2018-02-18T07:31:11.640Z,39.90
2018-02-18T07:33:39.179Z,44.70
2018-02-18T07:36:06.807Z,34.42
2018-02-18T07:38:34.348Z,51.00
2018-02-18T07:41:01.945Z,41.58
2018-02-18T07:43:29.571Z,41.22
2018-02-18T07:45:57.095Z,39.92
2018-02-18T07:48:24.630Z,41.88
2018-02-18T07:50:52.161Z,45.38
2018-02-18T07:53:19.724Z,42.92
2018-02-18T07:55:47.273Z,40.67
2018-02-18T07:58:14.837Z,39.05
2018-02-18T08:00:42.384Z,36.30
2018-02-18T08:03:10.689Z,41.33
2018-02-18T08:05:38.210Z,45.63
2018-02-18T08:08:05.750Z,38.00
2018-02-18T08:10:34.044Z,39.80
2018-02-18T08:13:01.618Z,41.33
2018-02-18T08:15:29.134Z,43.95
2018-02-18T08:17:56.718Z,43.17
2018-02-18T08:20:24.317Z,37.92
2018-02-18T08:22:51.875Z,32.17
2018-02-18T08:25:19.410Z,38.45
2018-02-18T08:27:46.969Z,40.12
2018-02-18T08:30:14.506Z,34.22
2018-02-18T08:32:42.032Z,43.00
2018-02-18T08:35:09.620Z,44.10
2018-02-18T08:37:38.140Z,37.85
2018-02-18T08:40:05.657Z,42.85
2018-02-18T08:42:33.996Z,41.22
2018-02-18T08:45:01.529Z,43.50
2018-02-18T08:47:29.108Z,35.75
2018-02-18T08:49:56.615Z,37.00
2018-02-18T08:52:25.084Z,35.65
2018-02-18T08:54:52.629Z,34.13
2018-02-18T08:57:20.139Z,37.67
2018-02-18T08:59:47.786Z,36.65
2018-02-18T09:02:15.361Z,35.47
2018-02-18T09:04:42.884Z,47.47
2018-02-18T09:07:11.197Z,37.28
2018-02-18T09:09:38.719Z,34.35
2018-02-18T09:12:07.225Z,31.55
2018-02-18T09:14:34.769Z,38.28
2018-02-18T09:17:03.118Z,34.85
2018-02-18T09:19:30.738Z,41.53
2018-02-18T09:21:58.289Z,35.00
2018-02-18T09:24:25.807Z,28.12
2018-02-18T09:27:05.770Z,35.13
2018-02-18T09:29:34.205Z,32.65
2018-02-18T09:32:02.258Z,34.40
2018-02-18T09:34:29.976Z,37.88
2018-02-18T09:36:58.352Z,43.70
2018-02-18T09:39:26.787Z,32.85
2018-02-18T09:41:55.145Z,32.97
2018-02-18T09:44:22.764Z,37.92
2018-02-18T09:46:51.076Z,35.03
2018-02-18T09:49:18.684Z,41.88
2018-02-18T09:51:46.319Z,46.35
2018-02-18T09:54:13.867Z,30.90
2018-02-18T09:56:41.371Z,33.05
2018-02-18T09:59:09.058Z,31.02
2018-02-18T10:01:36.607Z,34.67
2018-02-18T10:04:06.036Z,31.50
2018-02-18T10:06:33.607Z,34.17
2018-02-18T10:09:01.151Z,32.53
2018-02-18T10:11:28.715Z,28.87
2018-02-18T10:13:56.342Z,33.33
2018-02-18T10:16:24.642Z,33.53
2018-02-18T10:18:52.207Z,29.75
2018-02-18T10:21:19.753Z,31.80
2018-02-18T10:23:47.310Z,29.85
2018-02-18T10:26:14.872Z,34.45
2018-02-18T10:28:42.392Z,39.13
2018-02-18T10:31:09.961Z,37.03
2018-02-18T10:33:38.378Z,30.98
2018-02-18T10:36:05.919Z,31.67
2018-02-18T10:38:33.500Z,33.90
2018-02-18T10:41:01.080Z,26.77
2018-02-18T10:43:28.619Z,28.30
2018-02-18T10:45:56.226Z,28.55
2018-02-18T10:48:23.837Z,33.25
2018-02-18T10:50:51.372Z,28.17
2018-02-18T10:53:19.654Z,25.00
2018-02-18T10:55:47.335Z,34.70
2018-02-18T10:58:14.849Z,31.23
2018-02-18T11:00:43.165Z,29.83
2018-02-18T11:03:10.680Z,33.90
2018-02-18T11:05:38.282Z,38.80
2018-02-18T11:08:05.937Z,31.75
2018-02-18T11:10:33.590Z,27.05
2018-02-18T11:13:01.216Z,34.30
2018-02-18T11:15:28.762Z,30.58
2018-02-18T11:17:58.138Z,31.70
2018-02-18T11:20:39.330Z,31.52
2018-02-18T11:23:20.300Z,31.83
2018-02-18T11:25:47.865Z,23.30
2018-02-18T11:28:15.403Z,29.95
2018-02-18T11:30:42.982Z,31.30
2018-02-18T11:33:15.330Z,32.75
2018-02-18T11:35:42.992Z,26.75
2018-02-18T11:38:11.885Z,29.52
2018-02-18T11:40:40.393Z,31.02
2018-02-18T11:43:08.045Z,30.80
2018-02-18T11:45:35.803Z,31.05
2018-02-18T11:48:03.441Z,29.63
2018-02-18T11:50:31.078Z,31.10
2018-02-18T11:52:59.590Z,28.73
2018-02-18T11:55:27.254Z,31.27
2018-02-18T11:57:54.779Z,29.63
2018-02-18T12:00:23.200Z,35.08
2018-02-18T12:02:50.748Z,35.33
2018-02-18T12:05:18.478Z,29.98
2018-02-18T12:10:35.260Z,29.08
2018-02-18T12:13:02.890Z,33.83
2018-02-18T12:15:30.440Z,31.83
2018-02-18T12:17:57.977Z,32.13
2018-02-18T12:20:26.303Z,27.08
2018-02-18T12:22:53.847Z,20.35
2018-02-18T12:25:21.388Z,20.35
2018-02-18T12:27:49.660Z,24.98
2018-02-18T12:30:18.000Z,31.15
2018-02-18T12:32:45.633Z,33.40
2018-02-18T12:35:13.346Z,41.00
2018-02-18T12:37:40.886Z,33.05
2018-02-18T12:40:08.436Z,32.35
2018-02-18T12:42:36.106Z,35.33
2018-02-18T12:45:03.647Z,32.55
2018-02-18T12:47:31.185Z,35.33
2018-02-18T12:49:58.728Z,32.03
2018-02-18T12:52:26.356Z,30.20
2018-02-18T12:54:53.900Z,31.08
2018-02-18T12:57:21.430Z,23.02
2018-02-18T12:59:48.964Z,22.95
2018-02-18T13:02:16.491Z,20.88
2018-02-18T13:04:44.044Z,22.90
2018-02-18T13:07:11.567Z,29.02
2018-02-18T13:09:39.120Z,29.83
2018-02-18T13:12:06.659Z,32.97
2018-02-18T13:14:34.252Z,36.03
2018-02-18T13:17:03.349Z,35.63
2018-02-18T13:19:30.920Z,30.45
2018-02-18T13:21:58.486Z,30.45
2018-02-18T13:24:26.303Z,32.45
2018-02-18T13:26:53.903Z,30.88
2018-02-18T13:29:21.480Z,28.08
2018-02-18T13:31:49.088Z,28.67
2018-02-18T13:34:16.680Z,36.00
2018-02-18T13:36:44.219Z,29.73
2018-02-18T13:39:11.895Z,30.60
2018-02-18T13:41:39.964Z,25.45
2018-02-18T13:44:07.517Z,29.00
2018-02-18T13:46:35.334Z,28.38
2018-02-18T13:49:02.929Z,31.10
2018-02-18T13:51:30.687Z,29.25
2018-02-18T13:53:58.937Z,33.00
2018-02-18T13:56:27.232Z,33.67
2018-02-18T13:58:54.815Z,29.52
2018-02-18T14:01:25.453Z,31.62
2018-02-18T14:03:53.832Z,24.35
2018-02-18T14:06:21.436Z,29.67
2018-02-18T14:08:49.007Z,28.25
2018-02-18T14:11:17.345Z,27.70
2018-02-18T14:13:44.971Z,31.52
2018-02-18T14:16:12.520Z,28.80
2018-02-18T14:18:40.811Z,26.40
2018-02-18T14:21:08.379Z,24.90
2018-02-18T14:23:35.892Z,25.98
2018-02-18T14:26:03.472Z,25.77
2018-02-18T14:28:31.867Z,21.42
2018-02-18T14:30:59.413Z,22.83
2018-02-18T14:33:27.700Z,23.75
2018-02-18T14:35:55.260Z,20.30
2018-02-18T14:38:23.499Z,25.62
2018-02-18T14:40:51.063Z,23.08
2018-02-18T14:43:30.272Z,22.95
2018-02-18T14:46:09.763Z,23.73
2018-02-18T14:48:49.240Z,22.73
2018-02-18T14:51:29.424Z,21.30
2018-02-18T14:54:08.787Z,21.67
2018-02-18T14:56:48.507Z,19.15
2018-02-18T14:59:16.112Z,23.08
2018-02-18T15:01:43.624Z,20.42
2018-02-18T15:04:11.159Z,18.90
2018-02-18T15:06:38.765Z,22.70
2018-02-18T15:09:07.073Z,25.60
2018-02-18T15:11:34.619Z,24.37
2018-02-18T15:14:03.781Z,16.55
2018-02-18T15:16:32.206Z,18.45
2018-02-18T15:18:59.760Z,20.70
2018-02-18T15:21:27.303Z,23.30
2018-02-18T15:23:54.815Z,19.90
2018-02-18T15:26:22.484Z,19.37
2018-02-18T15:28:50.036Z,24.35
2018-02-18T15:31:17.611Z,21.95
2018-02-18T15:33:45.139Z,23.30
2018-02-18T15:36:12.690Z,20.70
2018-02-18T15:38:42.184Z,24.25
2018-02-18T15:41:09.866Z,23.15
2018-02-18T15:43:37.563Z,21.70
2018-02-18T15:46:05.280Z,20.27
2018-02-18T15:48:33.979Z,20.73
2018-02-18T15:51:01.647Z,21.83
2018-02-18T15:53:29.163Z,23.62
2018-02-18T15:55:56.707Z,22.87
2018-02-18T15:58:25.013Z,20.98
2018-02-18T16:00:52.561Z,21.92
2018-02-18T16:03:20.068Z,21.23
2018-02-18T16:05:47.642Z,23.90
2018-02-18T16:08:15.150Z,25.25
2018-02-18T16:10:42.810Z,24.83
2018-02-18T16:13:10.332Z,29.40
2018-02-18T16:15:38.655Z,27.13
2018-02-18T16:18:06.175Z,22.13
2018-02-18T16:20:34.501Z,32.00
2018-02-18T16:23:02.044Z,27.00
2018-02-18T16:25:29.570Z,26.62
2018-02-18T16:27:57.870Z,22.00
2018-02-18T16:30:25.435Z,32.60
2018-02-18T16:32:52.935Z,28.83
2018-02-18T16:35:20.559Z,26.50
2018-02-18T16:37:48.115Z,27.15
2018-02-18T16:40:15.710Z,25.42
2018-02-18T16:42:43.227Z,28.15
2018-02-18T16:45:10.735Z,27.20
2018-02-18T16:47:38.346Z,24.50
2018-02-18T16:50:05.916Z,24.85
2018-02-18T16:52:33.488Z,26.52
2018-02-18T16:55:01.130Z,24.33
2018-02-18T16:57:28.692Z,30.50
2018-02-18T16:59:56.205Z,26.15
2018-02-18T17:02:27.029Z,23.87
2018-02-18T17:04:54.727Z,31.75
2018-02-18T17:07:23.045Z,27.90
2018-02-18T17:09:50.574Z,30.62
2018-02-18T17:12:18.099Z,22.20
2018-02-18T17:14:45.607Z,28.35
2018-02-18T17:17:13.183Z,28.12
2018-02-18T17:19:40.660Z,24.92
2018-02-18T17:22:08.376Z,25.70
2018-02-18T17:24:35.894Z,32.00
2018-02-18T17:27:03.497Z,26.02
2018-02-18T17:29:31.045Z,33.92
2018-02-18T17:31:58.599Z,31.15
2018-02-18T17:34:26.178Z,29.67
2018-02-18T17:36:53.736Z,26.77
2018-02-18T17:39:21.259Z,26.50
2018-02-18T17:41:48.809Z,27.83
2018-02-18T17:44:16.389Z,26.45
2018-02-18T17:46:44.882Z,29.92
2018-02-18T17:49:12.465Z,29.30
2018-02-18T17:51:39.998Z,35.63
2018-02-18T17:54:07.549Z,33.17
2018-02-18T17:56:35.875Z,31.30
2018-02-18T17:59:03.419Z,31.08
2018-02-18T18:01:30.954Z,28.83
2018-02-18T18:03:58.514Z,27.98
2018-02-18T18:06:26.103Z,30.12
2018-02-18T18:08:53.635Z,30.55
2018-02-18T18:11:21.205Z,34.65
2018-02-18T18:13:48.764Z,44.63
2018-02-18T18:16:16.356Z,33.58
2018-02-18T18:18:43.890Z,32.15
2018-02-18T18:21:11.432Z,30.50
2018-02-18T18:23:38.977Z,30.88
2018-02-18T18:26:07.362Z,34.00
2018-02-18T18:28:35.647Z,39.95
2018-02-18T18:31:03.384Z,38.78
2018-02-18T18:33:30.921Z,36.40
2018-02-18T18:35:58.500Z,36.67
2018-02-18T18:38:26.031Z,36.53
2018-02-18T18:40:53.566Z,32.88
2018-02-18T18:43:21.094Z,34.97
2018-02-18T18:45:52.320Z,32.35
2018-02-18T18:48:20.100Z,29.83
2018-02-18T18:50:48.445Z,32.85
2018-02-18T18:53:16.009Z,36.80
2018-02-18T18:55:43.610Z,36.92
2018-02-18T18:58:11.117Z,37.53
2018-02-18T19:00:38.684Z,35.95
2018-02-18T19:03:06.220Z,37.25
2018-02-18T19:05:34.110Z,45.08
2018-02-18T19:08:01.737Z,37.72
2018-02-18T19:10:29.364Z,37.53
2018-02-18T19:12:57.677Z,39.72
2018-02-18T19:15:25.380Z,39.92
2018-02-18T19:17:52.921Z,39.50
2018-02-18T19:20:20.528Z,40.45
2018-02-18T19:22:48.919Z,47.75
2018-02-18T19:25:16.529Z,39.75
2018-02-18T19:27:44.102Z,41.75
2018-02-18T19:30:11.737Z,45.55
2018-02-18T19:32:39.283Z,43.55
2018-02-18T19:35:08.711Z,40.83
2018-02-18T19:37:37.179Z,50.45
2018-02-18T19:40:14.680Z,44.10
2018-02-18T19:42:42.296Z,44.45
2018-02-18T19:45:10.823Z,47.38
2018-02-18T19:47:38.398Z,49.95
2018-02-18T19:50:06.889Z,42.30
2018-02-18T19:52:34.479Z,46.37
2018-02-18T19:55:03.388Z,46.90
2018-02-18T19:57:31.050Z,45.88
2018-02-18T19:59:58.657Z,49.75
2018-02-18T20:02:26.271Z,47.83
2018-02-18T20:04:53.851Z,47.67
2018-02-18T20:07:21.378Z,44.33
2018-02-18T20:09:49.038Z,45.72
2018-02-18T20:12:17.587Z,57.10
2018-02-18T20:14:46.639Z,48.83
2018-02-18T20:17:14.895Z,45.35
2018-02-18T20:19:42.494Z,43.28
2018-02-18T20:22:10.324Z,45.15
2018-02-18T20:24:37.886Z,43.38
2018-02-18T20:27:15.899Z,42.90
2018-02-18T20:29:45.197Z,42.38
2018-02-18T20:32:12.808Z,44.42
2018-02-18T20:34:40.532Z,36.03
2018-02-18T20:37:08.092Z,39.13
2018-02-18T20:39:35.614Z,41.22
2018-02-18T20:42:03.967Z,42.70
2018-02-18T20:44:31.505Z,51.40
2018-02-18T20:46:59.049Z,50.42
2018-02-18T20:49:26.567Z,42.65
2018-02-18T20:51:54.899Z,43.50
2018-02-18T20:54:22.417Z,43.13
2018-02-18T20:56:49.957Z,50.33
2018-02-18T20:59:18.309Z,49.75
2018-02-18T21:01:45.865Z,55.05
2018-02-18T21:04:14.529Z,51.65
2018-02-18T21:06:42.290Z,51.88
2018-02-18T21:09:09.827Z,45.75
2018-02-18T21:11:37.446Z,42.60
2018-02-18T21:14:04.966Z,49.60
2018-02-18T21:16:32.499Z,53.55
2018-02-18T21:19:00.106Z,49.30
2018-02-18T21:21:27.686Z,55.55
2018-02-18T21:23:55.974Z,45.00
2018-02-18T21:26:24.426Z,47.25
2018-02-18T21:28:51.958Z,45.70
2018-02-18T21:31:19.847Z,49.17
2018-02-18T21:33:47.580Z,50.83
2018-02-18T21:36:15.183Z,47.78
2018-02-18T21:38:42.756Z,45.80
2018-02-18T21:41:11.570Z,44.80
2018-02-18T21:43:39.202Z,43.28
2018-02-18T21:46:06.798Z,47.08
2018-02-18T21:48:34.366Z,50.58
2018-02-18T21:51:01.903Z,48.15
2018-02-18T21:53:30.267Z,45.58
2018-02-18T21:55:59.034Z,48.65
2018-02-18T21:58:27.482Z,39.75
2018-02-18T22:00:55.088Z,46.80
2018-02-18T22:03:22.639Z,52.38
2018-02-18T22:05:50.184Z,49.88
2018-02-18T22:08:17.764Z,45.00
2018-02-18T22:10:45.412Z,52.75
2018-02-18T22:13:12.956Z,49.95
2018-02-18T22:15:40.472Z,56.65
2018-02-18T22:18:08.097Z,51.22
2018-02-18T22:20:35.648Z,51.35
2018-02-18T22:23:04.136Z,54.67
2018-02-18T22:25:31.680Z,55.83
2018-02-18T22:30:33.296Z,54.10
2018-02-18T22:33:01.636Z,55.22
2018-02-18T22:35:29.179Z,47.03
2018-02-18T22:37:56.757Z,55.33
2018-02-18T22:40:24.288Z,54.92
2018-02-18T22:42:51.820Z,48.38
2018-02-18T22:45:19.379Z,56.47
2018-02-18T22:47:46.944Z,55.03
2018-02-18T22:50:14.467Z,53.38
2018-02-18T22:52:42.099Z,52.78
2018-02-18T22:55:09.637Z,52.10
2018-02-18T22:57:37.178Z,53.83
2018-02-18T23:00:04.679Z,53.40
2018-02-18T23:02:32.345Z,59.78
2018-02-18T23:05:05.499Z,52.92
2018-02-18T23:07:33.068Z,52.35
2018-02-18T23:10:00.574Z,53.10
2018-02-18T23:12:28.110Z,59.38
2018-02-18T23:14:55.640Z,56.55
2018-02-18T23:17:23.183Z,54.13
2018-02-18T23:19:50.697Z,52.33
2018-02-18T23:22:18.241Z,58.63
2018-02-18T23:24:45.756Z,54.95
2018-02-18T23:27:14.624Z,53.15
2018-02-18T23:29:42.923Z,51.60
2018-02-18T23:32:10.492Z,59.22
2018-02-18T23:34:38.024Z,60.35
2018-02-18T23:37:06.319Z,54.35
2018-02-18T23:39:33.852Z,65.43
2018-02-18T23:42:02.178Z,51.13
2018-02-18T23:44:29.701Z,53.97
2018-02-18T23:46:57.977Z,59.88
2018-02-18T23:49:26.291Z,65.20
2018-02-18T23:51:53.813Z,57.90
2018-02-18T23:54:22.180Z,60.17
2018-02-18T23:56:50.594Z,58.63
2018-02-18T23:59:18.143Z,59.60
